Time;durP1;ratioP1;P1;durP2;ratioP2;P2;SDS_P1;SDS_P2;PMS_P1;PMS_P2;Temp;Humidity;BMP_temperature;BMP_pressure;BME280_temperature;BME280_humidity;BME280_pressure;Samples;Min_cycle;Max_cycle;Signal;HPM_P1;HPM_P2
2023/06/01 00:01:32;;;;;;;16.08;5.68;;;11.40;99.90;;;;;;4974347;28;20034;-78
2023/06/01 00:03:59;;;;;;;9.77;5.40;;;11.40;99.90;;;;;;4987064;28;20116;-78
2023/06/01 00:06:28;;;;;;;11.25;5.40;;;11.30;99.90;;;;;;4985563;28;20041;-79
2023/06/01 00:08:55;;;;;;;10.93;5.30;;;11.40;99.90;;;;;;4975713;28;20149;-78
2023/06/01 00:11:21;;;;;;;14.32;5.88;;;11.40;99.90;;;;;;4990335;28;20053;-79
2023/06/01 00:13:48;;;;;;;10.90;5.28;;;11.40;99.90;;;;;;5011478;28;20140;-79
2023/06/01 00:16:14;;;;;;;14.93;5.72;;;11.40;99.90;;;;;;4999429;28;20042;-78
2023/06/01 00:18:41;;;;;;;14.00;5.50;;;11.40;99.90;;;;;;4977383;28;20033;-78
2023/06/01 00:21:06;;;;;;;13.90;6.00;;;11.40;99.90;;;;;;5008248;28;20076;-77
2023/06/01 00:23:33;;;;;;;14.02;5.95;;;11.40;99.90;;;;;;4992204;28;20104;-78
2023/06/01 00:26:00;;;;;;;12.20;5.80;;;11.40;99.90;;;;;;4999019;28;20046;-78
2023/06/01 00:28:26;;;;;;;10.77;5.00;;;11.40;99.90;;;;;;5005202;28;20041;-78
2023/06/01 00:30:53;;;;;;;13.48;5.80;;;11.30;99.90;;;;;;4984911;28;20186;-79
2023/06/01 00:33:20;;;;;;;12.23;5.57;;;11.40;99.90;;;;;;4975381;28;20034;-79
2023/06/01 00:35:46;;;;;;;11.13;4.90;;;11.30;99.90;;;;;;4989130;28;20046;-79
2023/06/01 00:38:12;;;;;;;14.32;5.93;;;11.30;99.90;;;;;;5013034;28;20025;-79
2023/06/01 00:40:37;;;;;;;12.85;5.50;;;11.30;99.90;;;;;;4997744;28;20123;-79
2023/06/01 00:43:04;;;;;;;12.93;5.28;;;11.20;99.90;;;;;;5003241;28;20438;-79
2023/06/01 00:45:30;;;;;;;19.70;6.30;;;11.30;99.90;;;;;;5008140;28;20145;-79
2023/06/01 00:47:56;;;;;;;13.32;5.88;;;11.30;99.90;;;;;;4988728;28;20038;-79
2023/06/01 00:50:22;;;;;;;11.15;5.35;;;11.20;99.90;;;;;;5007082;28;20140;-79
2023/06/01 00:52:50;;;;;;;17.52;5.75;;;11.30;99.90;;;;;;5000208;28;20246;-78
2023/06/01 00:55:16;;;;;;;13.38;5.70;;;11.30;99.90;;;;;;4999740;28;20491;-79
2023/06/01 00:57:43;;;;;;;16.88;6.68;;;11.20;99.90;;;;;;4979386;28;20045;-79
2023/06/01 01:00:10;;;;;;;9.48;5.60;;;11.20;99.90;;;;;;5001809;28;20034;-78
2023/06/01 01:02:41;;;;;;;10.30;5.38;;;11.20;99.90;;;;;;5022970;28;20080;-79
2023/06/01 01:05:11;;;;;;;17.15;6.03;;;11.20;99.90;;;;;;5005147;28;20042;-78
2023/06/01 01:08:05;;;;;;;13.93;5.32;;;11.20;99.90;;;;;;4984592;28;20504;-79
2023/06/01 01:10:41;;;;;;;15.77;5.85;;;11.20;99.90;;;;;;5022151;28;20030;-78
2023/06/01 01:13:44;;;;;;;16.23;6.15;;;11.30;99.90;;;;;;5002033;28;20503;-79
2023/06/01 01:16:09;;;;;;;;;;;11.20;99.90;;;;;;4977943;28;20038;-78
2023/06/01 01:18:38;;;;;;;10.80;5.88;;;11.30;99.90;;;;;;5008534;28;20281;-79
2023/06/01 01:21:21;;;;;;;10.30;5.85;;;11.30;99.90;;;;;;5002017;28;20037;-79
2023/06/01 01:24:09;;;;;;;17.38;6.32;;;11.30;99.90;;;;;;5012463;28;20132;-79
2023/06/01 01:27:17;;;;;;;16.00;5.70;;;11.30;99.90;;;;;;5005065;28;20045;-79
2023/06/01 01:29:45;;;;;;;10.23;6.13;;;11.20;99.90;;;;;;4992513;28;20050;-79
2023/06/01 01:32:12;;;;;;;18.73;6.93;;;11.20;99.90;;;;;;5019162;28;20046;-79
2023/06/01 01:34:41;;;;;;;11.75;6.50;;;11.20;99.90;;;;;;5020834;28;20063;-79
2023/06/01 01:37:07;;;;;;;17.05;6.15;;;11.20;99.90;;;;;;4992320;28;20063;-79
2023/06/01 01:39:33;;;;;;;15.80;6.47;;;11.30;99.90;;;;;;5000831;28;20044;-78
2023/06/01 01:41:58;;;;;;;13.98;7.18;;;11.30;99.90;;;;;;5005993;28;20045;-79
2023/06/01 01:44:24;;;;;;;12.85;6.20;;;11.30;99.90;;;;;;5008160;28;20042;-79
2023/06/01 01:46:58;;;;;;;13.60;6.20;;;11.30;99.90;;;;;;4999866;28;20457;-79
2023/06/01 01:49:28;;;;;;;13.88;6.07;;;11.30;99.90;;;;;;5007749;28;20041;-79
2023/06/01 01:52:03;;;;;;;13.30;6.57;;;11.30;99.90;;;;;;5010969;28;20046;-79
2023/06/01 01:54:31;;;;;;;14.90;6.63;;;11.30;99.90;;;;;;5004595;28;20381;-79
2023/06/01 01:57:00;;;;;;;17.52;6.85;;;11.30;99.90;;;;;;4997310;28;20038;-79
2023/06/01 01:59:26;;;;;;;14.48;6.72;;;11.30;99.90;;;;;;5012429;28;20095;-79
2023/06/01 02:01:52;;;;;;;14.10;7.72;;;11.30;99.90;;;;;;5005493;28;20045;-78
2023/06/01 02:04:18;;;;;;;12.15;6.72;;;11.30;99.90;;;;;;4984860;28;20466;-79
2023/06/01 02:06:44;;;;;;;13.68;6.88;;;11.30;99.90;;;;;;5006166;28;20124;-78
2023/06/01 02:09:10;;;;;;;13.95;7.13;;;11.30;99.90;;;;;;5017495;28;20391;-78
2023/06/01 02:11:36;;;;;;;16.13;6.32;;;11.30;99.90;;;;;;4978136;28;20496;-78
2023/06/01 02:14:02;;;;;;;17.08;7.07;;;11.30;99.90;;;;;;4975823;28;20042;-78
2023/06/01 02:16:28;;;;;;;22.77;7.32;;;11.30;99.90;;;;;;4978831;28;20034;-78
2023/06/01 02:18:53;;;;;;;15.38;6.47;;;11.30;99.90;;;;;;4971876;28;20517;-78
2023/06/01 02:21:19;;;;;;;18.15;6.25;;;11.20;99.90;;;;;;4985708;28;20046;-79
2023/06/01 02:23:45;;;;;;;15.38;6.03;;;11.20;99.90;;;;;;4985841;28;20037;-78
2023/06/01 02:26:11;;;;;;;10.95;6.15;;;11.20;99.90;;;;;;4994232;28;20038;-78
2023/06/01 02:28:43;;;;;;;14.27;5.65;;;11.20;99.90;;;;;;4970330;28;20046;-78
2023/06/01 02:31:09;;;;;;;12.35;6.28;;;11.10;99.90;;;;;;4985736;28;20148;-78
2023/06/01 02:33:35;;;;;;;12.27;6.15;;;11.10;99.90;;;;;;4987855;28;20088;-78
2023/06/01 02:36:01;;;;;;;13.52;6.30;;;11.10;99.90;;;;;;4986085;28;20053;-78
2023/06/01 02:38:27;;;;;;;13.15;6.35;;;11.10;99.90;;;;;;4968726;28;20034;-78
2023/06/01 02:40:53;;;;;;;15.80;6.68;;;11.10;99.90;;;;;;4966903;28;20120;-78
2023/06/01 02:43:19;;;;;;;13.25;6.18;;;11.10;99.90;;;;;;4962829;28;20038;-78
2023/06/01 02:45:45;;;;;;;18.65;6.38;;;11.10;99.90;;;;;;4951284;28;20384;-78
2023/06/01 02:48:10;;;;;;;14.45;6.35;;;11.10;99.90;;;;;;4962995;28;20050;-78
2023/06/01 02:50:36;;;;;;;16.92;6.03;;;11.00;99.90;;;;;;4969299;28;20125;-78
2023/06/01 02:53:02;;;;;;;15.05;6.75;;;11.00;99.90;;;;;;4981396;28;20151;-79
2023/06/01 02:55:28;;;;;;;13.73;6.20;;;11.10;99.90;;;;;;4965644;28;20069;-78
2023/06/01 02:57:53;;;;;;;17.20;6.07;;;11.10;99.90;;;;;;4971242;28;20498;-78
2023/06/01 03:00:19;;;;;;;16.55;7.15;;;11.10;99.90;;;;;;4970915;28;20679;-78
2023/06/01 03:02:46;;;;;;;18.52;6.18;;;11.10;99.90;;;;;;4963051;28;20125;-79
2023/06/01 03:05:14;;;;;;;10.48;5.47;;;10.80;99.90;;;;;;4989087;28;20432;-78
2023/06/01 03:07:40;;;;;;;13.35;6.18;;;11.00;99.90;;;;;;5006004;28;20045;-78
2023/06/01 03:10:07;;;;;;;11.45;5.65;;;11.00;99.90;;;;;;4981022;28;20034;-79
2023/06/01 03:12:33;;;;;;;10.30;5.38;;;10.90;99.90;;;;;;4962254;28;20053;-78
2023/06/01 03:14:59;;;;;;;11.13;5.60;;;10.90;99.90;;;;;;4982990;28;20076;-78
2023/06/01 03:17:25;;;;;;;11.63;5.93;;;10.90;99.90;;;;;;4989150;28;20102;-78
2023/06/01 03:19:51;;;;;;;12.18;5.50;;;10.90;99.90;;;;;;4985361;28;20454;-78
2023/06/01 03:22:17;;;;;;;13.80;5.35;;;10.80;99.90;;;;;;4984665;28;20045;-78
2023/06/01 03:24:44;;;;;;;14.55;5.78;;;10.80;99.90;;;;;;4983743;28;20065;-78
2023/06/01 03:27:12;;;;;;;14.77;5.93;;;10.90;99.90;;;;;;5003455;28;20077;-78
2023/06/01 03:29:38;;;;;;;18.05;7.00;;;10.90;99.90;;;;;;4997554;28;20044;-78
2023/06/01 03:32:04;;;;;;;12.25;6.10;;;10.80;99.90;;;;;;4998288;28;20046;-78
2023/06/01 03:34:32;;;;;;;11.45;6.03;;;10.80;99.90;;;;;;4942133;28;20073;-78
2023/06/01 03:36:58;;;;;;;12.27;5.80;;;10.80;99.90;;;;;;4946827;28;20046;-77
2023/06/01 03:39:24;;;;;;;8.38;5.32;;;10.90;99.90;;;;;;4977056;28;20030;-78
2023/06/01 03:41:50;;;;;;;12.35;5.43;;;10.90;99.90;;;;;;5005038;28;20561;-78
2023/06/01 03:44:15;;;;;;;14.18;5.75;;;10.80;99.90;;;;;;4998044;28;20045;-78
2023/06/01 03:46:41;;;;;;;8.82;4.85;;;10.90;99.90;;;;;;4964074;28;20046;-78
2023/06/01 03:49:07;;;;;;;9.07;5.07;;;10.80;99.90;;;;;;4980713;28;20042;-78
2023/06/01 03:51:32;;;;;;;10.40;5.32;;;10.80;99.90;;;;;;4999878;28;20041;-78
2023/06/01 03:53:58;;;;;;;13.90;5.40;;;10.80;99.90;;;;;;4958524;28;20093;-78
2023/06/01 03:56:24;;;;;;;11.65;5.00;;;10.80;99.90;;;;;;4985003;28;20033;-78
2023/06/01 03:58:50;;;;;;;11.13;5.07;;;10.80;99.90;;;;;;4984380;28;20038;-78
2023/06/01 04:01:16;;;;;;;16.10;5.30;;;10.80;99.90;;;;;;5002364;28;20046;-78
2023/06/01 04:03:43;;;;;;;12.20;5.45;;;10.80;99.90;;;;;;4989606;28;20161;-78
2023/06/01 04:06:13;;;;;;;12.13;5.60;;;10.80;99.90;;;;;;4992350;28;20076;-78
2023/06/01 04:08:48;;;;;;;11.05;4.90;;;10.80;99.90;;;;;;4972017;28;20080;-78
2023/06/01 04:11:14;;;;;;;9.98;5.00;;;10.80;99.90;;;;;;4975298;28;20073;-78
2023/06/01 04:13:40;;;;;;;8.07;5.10;;;10.80;99.90;;;;;;5002704;28;20061;-78
2023/06/01 04:16:06;;;;;;;12.30;5.32;;;10.80;99.90;;;;;;4981370;28;20045;-78
2023/06/01 04:18:32;;;;;;;10.40;4.70;;;10.80;99.90;;;;;;4999995;28;20502;-79
2023/06/01 04:20:57;;;;;;;9.05;4.85;;;10.80;99.90;;;;;;5010827;28;20048;-79
2023/06/01 04:23:23;;;;;;;10.68;4.60;;;10.80;99.90;;;;;;5019222;28;20073;-78
2023/06/01 04:25:53;;;;;;;12.23;5.38;;;10.80;99.90;;;;;;4975361;28;20095;-79
2023/06/01 04:28:18;;;;;;;11.10;4.50;;;10.80;99.90;;;;;;5007133;28;20045;-78
2023/06/01 04:30:47;;;;;;;11.68;4.63;;;10.80;99.90;;;;;;4996267;28;20674;-79
2023/06/01 04:33:13;;;;;;;8.88;4.22;;;10.80;99.90;;;;;;5007785;28;20037;-79
2023/06/01 04:35:39;;;;;;;11.23;4.85;;;10.90;99.90;;;;;;5016523;28;20048;-78
2023/06/01 04:38:05;;;;;;;13.63;4.95;;;10.80;99.90;;;;;;4979629;28;20113;-78
2023/06/01 04:40:31;;;;;;;13.32;5.13;;;10.90;99.90;;;;;;4993664;28;20628;-78
2023/06/01 04:42:56;;;;;;;18.38;5.65;;;10.90;99.90;;;;;;4992748;28;20389;-78
2023/06/01 04:45:25;;;;;;;7.50;4.53;;;10.90;99.90;;;;;;5001884;28;20034;-78
2023/06/01 04:47:51;;;;;;;67.70;7.25;;;10.90;99.90;;;;;;4992918;28;20096;-79
2023/06/01 04:50:17;;;;;;;11.07;4.90;;;10.90;99.90;;;;;;4999178;28;20045;-79
2023/06/01 04:52:44;;;;;;;13.15;4.80;;;10.90;99.90;;;;;;5007224;28;20491;-78
2023/06/01 04:55:13;;;;;;;9.95;4.35;;;10.90;99.90;;;;;;5003178;28;20081;-78
2023/06/01 04:57:39;;;;;;;9.15;4.82;;;10.90;99.90;;;;;;5007218;28;20067;-78
2023/06/01 05:00:11;;;;;;;7.90;4.05;;;10.80;99.90;;;;;;4993543;28;20530;-78
2023/06/01 05:02:37;;;;;;;11.25;4.82;;;10.90;99.90;;;;;;4992885;28;20060;-78
2023/06/01 05:05:04;;;;;;;7.88;4.05;;;10.90;99.90;;;;;;5009588;28;20038;-78
2023/06/01 05:07:30;;;;;;;9.27;4.93;;;10.90;99.90;;;;;;5008136;28;20586;-78
2023/06/01 05:09:57;;;;;;;9.25;3.85;;;10.90;99.90;;;;;;5019299;28;20080;-78
2023/06/01 05:12:23;;;;;;;8.90;4.93;;;10.90;99.90;;;;;;5008389;28;20574;-78
2023/06/01 05:14:49;;;;;;;7.13;4.55;;;10.90;99.90;;;;;;5012826;28;20051;-78
2023/06/01 05:17:15;;;;;;;6.40;4.20;;;10.90;99.90;;;;;;5004679;28;20045;-78
2023/06/01 05:19:41;;;;;;;9.95;4.55;;;10.90;99.90;;;;;;5009008;28;20064;-78
2023/06/01 05:22:06;;;;;;;70.35;9.15;;;10.90;99.90;;;;;;4977649;28;20063;-78
2023/06/01 05:24:32;;;;;;;14.23;4.25;;;11.00;99.90;;;;;;4992873;28;20517;-77
2023/06/01 05:26:58;;;;;;;12.23;4.93;;;11.00;99.90;;;;;;4979812;28;21094;-77
2023/06/01 05:29:23;;;;;;;9.40;4.38;;;11.00;99.90;;;;;;5008834;28;20176;-77
2023/06/01 05:31:50;;;;;;;9.13;4.35;;;11.00;99.90;;;;;;4983700;28;20061;-78
2023/06/01 05:34:16;;;;;;;8.55;5.15;;;11.00;99.90;;;;;;5023388;28;20069;-78
2023/06/01 05:36:42;;;;;;;8.55;4.40;;;11.00;99.90;;;;;;4990267;28;20068;-78
2023/06/01 05:39:07;;;;;;;9.77;4.82;;;11.00;99.90;;;;;;4995799;28;20069;-78
2023/06/01 05:41:33;;;;;;;9.93;5.00;;;10.90;99.90;;;;;;5009025;28;20486;-78
2023/06/01 05:43:59;;;;;;;10.45;5.25;;;11.00;99.90;;;;;;5006765;28;20117;-78
2023/06/01 05:46:25;;;;;;;10.70;5.35;;;11.00;99.90;;;;;;4976119;28;20051;-77
2023/06/01 05:48:51;;;;;;;15.73;6.05;;;11.00;99.90;;;;;;5012535;28;20140;-78
2023/06/01 05:51:17;;;;;;;30.58;6.22;;;11.00;99.90;;;;;;4976404;28;20038;-78
2023/06/01 05:53:43;;;;;;;13.93;5.60;;;11.10;99.90;;;;;;5010343;28;20612;-78
2023/06/01 05:56:08;;;;;;;19.85;5.28;;;11.10;99.90;;;;;;5026589;28;20048;-78
2023/06/01 05:58:34;;;;;;;15.98;5.35;;;11.20;99.90;;;;;;4953726;28;20494;-78
2023/06/01 06:01:00;;;;;;;11.23;6.03;;;11.20;99.90;;;;;;5012036;28;20088;-78
2023/06/01 06:03:27;;;;;;;17.75;5.55;;;11.20;99.90;;;;;;5004556;28;20523;-78
2023/06/01 06:05:53;;;;;;;13.27;6.10;;;11.20;99.90;;;;;;4987488;28;20056;-78
2023/06/01 06:08:19;;;;;;;15.80;5.72;;;11.20;99.90;;;;;;4997025;28;20045;-78
2023/06/01 06:10:44;;;;;;;13.40;5.70;;;11.20;99.90;;;;;;5000489;28;20046;-79
2023/06/01 06:13:10;;;;;;;9.95;6.18;;;11.20;99.90;;;;;;4988318;28;20049;-78
2023/06/01 06:15:36;;;;;;;12.40;5.78;;;11.10;99.90;;;;;;5012913;28;20469;-78
2023/06/01 06:18:02;;;;;;;13.30;6.28;;;11.10;99.90;;;;;;5007582;28;20025;-78
2023/06/01 06:20:28;;;;;;;21.80;6.35;;;11.10;99.90;;;;;;5011104;28;20431;-78
2023/06/01 06:22:54;;;;;;;107.80;13.75;;;11.20;99.90;;;;;;4990586;28;20041;-78
2023/06/01 06:25:20;;;;;;;17.40;5.95;;;11.20;99.90;;;;;;4986384;28;20040;-78
2023/06/01 06:27:46;;;;;;;11.07;5.00;;;11.30;99.90;;;;;;4986167;28;20053;-78
2023/06/01 06:30:12;;;;;;;12.52;4.35;;;11.30;99.90;;;;;;4998838;28;20256;-78
2023/06/01 06:32:38;;;;;;;8.70;4.38;;;11.30;99.90;;;;;;5008394;28;20052;-78
2023/06/01 06:35:04;;;;;;;10.48;4.40;;;11.40;99.90;;;;;;5005759;28;20049;-78
2023/06/01 06:37:30;;;;;;;10.40;4.45;;;11.30;99.90;;;;;;4999469;28;20042;-79
2023/06/01 06:39:56;;;;;;;9.13;4.32;;;11.30;99.90;;;;;;4960627;28;20172;-78
2023/06/01 06:42:23;;;;;;;10.30;4.80;;;11.30;99.90;;;;;;4967345;28;20057;-78
2023/06/01 06:44:48;;;;;;;8.82;4.20;;;11.40;99.90;;;;;;4997091;28;20073;-79
2023/06/01 06:47:18;;;;;;;7.75;4.07;;;11.40;99.90;;;;;;5000303;28;20038;-78
2023/06/01 06:49:44;;;;;;;15.35;6.03;;;11.40;99.90;;;;;;5007646;28;20773;-78
2023/06/01 06:52:10;;;;;;;8.73;4.30;;;11.50;99.90;;;;;;5021879;28;20112;-78
2023/06/01 06:54:40;;;;;;;9.68;4.18;;;11.50;99.90;;;;;;5004028;28;20454;-78
2023/06/01 06:57:06;;;;;;;9.88;5.15;;;11.60;99.90;;;;;;4965173;28;20049;-79
2023/06/01 06:59:33;;;;;;;8.02;3.80;;;11.60;99.90;;;;;;4982596;28;20037;-79
2023/06/01 07:01:58;;;;;;;8.52;4.40;;;11.70;99.90;;;;;;4999915;28;20091;-78
2023/06/01 07:04:24;;;;;;;11.48;5.35;;;11.70;99.90;;;;;;5000568;28;20050;-78
2023/06/01 07:06:51;;;;;;;9.52;4.35;;;11.70;99.90;;;;;;4956429;28;20132;-78
2023/06/01 07:09:17;;;;;;;12.40;5.43;;;11.70;99.90;;;;;;4983536;28;20108;-78
2023/06/01 07:11:42;;;;;;;8.57;5.10;;;11.70;99.90;;;;;;5001258;28;20042;-78
2023/06/01 07:14:08;;;;;;;9.18;4.30;;;11.70;99.90;;;;;;4991222;28;20049;-78
2023/06/01 07:16:34;;;;;;;9.65;3.90;;;11.70;99.90;;;;;;5014564;28;20487;-78
2023/06/01 07:19:00;;;;;;;7.53;4.22;;;11.70;99.90;;;;;;4987848;28;20441;-83
2023/06/01 07:21:25;;;;;;;6.63;4.10;;;11.80;99.90;;;;;;5025851;28;20038;-82
2023/06/01 07:23:51;;;;;;;7.47;3.83;;;11.80;99.90;;;;;;4992701;28;20045;-78
2023/06/01 07:26:18;;;;;;;6.50;3.20;;;11.80;99.90;;;;;;5018760;28;20041;-80
2023/06/01 07:28:44;;;;;;;7.00;3.70;;;11.80;99.90;;;;;;4983765;28;20413;-79
2023/06/01 07:31:09;;;;;;;4.70;3.10;;;11.80;99.90;;;;;;4968507;28;20045;-80
2023/06/01 07:33:36;;;;;;;8.40;3.42;;;11.90;99.90;;;;;;5003119;28;20042;-81
2023/06/01 07:36:03;;;;;;;5.05;2.63;;;11.90;99.90;;;;;;4992330;28;20037;-82
2023/06/01 07:38:29;;;;;;;4.90;3.15;;;12.00;99.90;;;;;;5006401;28;20044;-80
2023/06/01 07:40:55;;;;;;;6.57;2.85;;;12.10;99.90;;;;;;4982992;28;20041;-82
2023/06/01 07:43:21;;;;;;;4.45;2.22;;;12.10;99.90;;;;;;4989764;28;20406;-80
2023/06/01 07:45:46;;;;;;;6.60;3.22;;;12.10;99.90;;;;;;5004746;28;20073;-80
2023/06/01 07:48:12;;;;;;;3.00;2.22;;;12.10;99.90;;;;;;5002750;28;20444;-81
2023/06/01 07:50:38;;;;;;;3.95;2.20;;;12.10;99.90;;;;;;4972469;28;20043;-81
2023/06/01 07:53:04;;;;;;;4.03;2.22;;;12.10;99.90;;;;;;4983136;28;20129;-79
2023/06/01 07:55:30;;;;;;;3.53;2.60;;;12.10;99.90;;;;;;5002270;28;20037;-82
2023/06/01 07:57:55;;;;;;;5.05;2.20;;;12.10;99.90;;;;;;4996724;28;20378;-80
2023/06/01 08:00:22;;;;;;;5.45;2.17;;;12.10;99.90;;;;;;4993770;28;20146;-80
2023/06/01 08:02:48;;;;;;;5.38;2.33;;;12.10;99.90;;;;;;5008746;28;20104;-80
2023/06/01 08:05:14;;;;;;;4.32;2.47;;;12.20;99.90;;;;;;5018943;28;20408;-79
2023/06/01 08:07:41;;;;;;;5.07;2.63;;;12.20;99.90;;;;;;4997634;28;20050;-79
2023/06/01 08:10:10;;;;;;;5.40;2.55;;;12.30;99.90;;;;;;5004710;28;20507;-80
2023/06/01 08:12:36;;;;;;;42.95;4.60;;;12.50;99.90;;;;;;5020660;28;20599;-76
2023/06/01 08:15:03;;;;;;;4.22;2.10;;;12.50;99.90;;;;;;4991159;28;20124;-77
2023/06/01 08:17:30;;;;;;;2.25;1.60;;;12.50;99.90;;;;;;5007374;28;20055;-76
2023/06/01 08:19:58;;;;;;;4.78;1.80;;;12.60;99.90;;;;;;5000749;28;20407;-76
2023/06/01 08:22:24;;;;;;;4.07;2.00;;;12.60;99.90;;;;;;4993099;28;20046;-76
2023/06/01 08:24:51;;;;;;;4.10;2.10;;;12.50;99.90;;;;;;4986934;28;20096;-76
2023/06/01 08:27:22;;;;;;;5.10;2.05;;;12.50;99.90;;;;;;4987253;28;20041;-76
2023/06/01 08:29:49;;;;;;;3.20;2.20;;;12.60;99.90;;;;;;4994525;28;20534;-76
2023/06/01 08:32:16;;;;;;;4.07;2.10;;;12.70;99.90;;;;;;5011439;28;20038;-75
2023/06/01 08:34:46;;;;;;;6.15;2.45;;;12.70;99.90;;;;;;4994910;28;20042;-78
2023/06/01 08:37:16;;;;;;;4.38;2.30;;;12.70;99.90;;;;;;5011489;28;20037;-79
2023/06/01 08:39:42;;;;;;;6.53;3.20;;;12.80;99.90;;;;;;4977374;28;20041;-79
2023/06/01 08:42:23;;;;;;;7.82;3.95;;;12.80;99.90;;;;;;4983527;28;20171;-79
2023/06/01 08:44:53;;;;;;;7.40;3.25;;;12.70;99.90;;;;;;4987149;28;20125;-79
2023/06/01 08:47:20;;;;;;;5.35;2.92;;;12.70;99.90;;;;;;4993515;28;20123;-79
2023/06/01 08:49:46;;;;;;;5.72;2.08;;;12.80;99.90;;;;;;4989400;28;20108;-79
2023/06/01 08:52:14;;;;;;;3.13;1.77;;;12.80;99.90;;;;;;4988163;28;20041;-79
2023/06/01 08:54:40;;;;;;;4.85;2.17;;;12.90;99.90;;;;;;5001654;28;20041;-79
2023/06/01 08:57:07;;;;;;;4.15;2.10;;;13.00;99.90;;;;;;4985193;28;20097;-80
2023/06/01 08:59:35;;;;;;;4.15;2.40;;;13.10;99.90;;;;;;5012667;28;20084;-80
2023/06/01 09:02:00;;;;;;;3.03;2.10;;;13.10;99.90;;;;;;4985719;28;20410;-80
2023/06/01 09:04:26;;;;;;;5.28;2.33;;;13.00;99.90;;;;;;4983027;28;20034;-79
2023/06/01 09:06:52;;;;;;;4.38;2.10;;;13.00;99.90;;;;;;4990138;28;20096;-79
2023/06/01 09:09:18;;;;;;;2.10;1.80;;;13.00;99.90;;;;;;4973609;28;20672;-80
2023/06/01 09:11:44;;;;;;;4.35;2.30;;;12.90;99.90;;;;;;4991952;28;20092;-79
2023/06/01 09:14:23;;;;;;;4.05;2.15;;;12.80;99.90;;;;;;4978491;28;20042;-79
2023/06/01 09:16:50;;;;;;;6.57;2.08;;;12.80;99.90;;;;;;5006527;28;20046;-79
2023/06/01 09:19:20;;;;;;;5.20;2.53;;;12.80;99.90;;;;;;4971360;28;20040;-79
2023/06/01 09:21:59;;;;;;;6.40;2.40;;;12.80;99.90;;;;;;4987519;28;20109;-80
2023/06/01 09:24:26;;;;;;;5.15;2.50;;;12.80;99.90;;;;;;4985612;28;20046;-79
2023/06/01 09:27:02;;;;;;;5.05;2.35;;;12.70;99.90;;;;;;4968228;28;20414;-79
2023/06/01 09:29:28;;;;;;;4.47;2.60;;;12.80;99.90;;;;;;5005787;28;20041;-79
2023/06/01 09:31:54;;;;;;;5.43;2.63;;;12.90;99.90;;;;;;4985674;28;20045;-80
2023/06/01 09:34:21;;;;;;;6.57;2.50;;;12.90;99.90;;;;;;4961290;28;20088;-79
2023/06/01 09:36:49;;;;;;;4.05;2.60;;;12.90;99.90;;;;;;4996584;28;20037;-79
2023/06/01 09:39:17;;;;;;;3.35;2.10;;;13.00;99.90;;;;;;4973344;28;20030;-79
2023/06/01 09:41:55;;;;;;;3.20;2.20;;;13.00;99.90;;;;;;4967521;28;20041;-79
2023/06/01 09:44:26;;;;;;;3.95;2.38;;;13.00;99.90;;;;;;4982467;28;20469;-79
2023/06/01 09:47:03;;;;;;;7.40;2.53;;;13.10;99.90;;;;;;4993614;28;20355;-78
2023/06/01 09:49:31;;;;;;;4.05;2.65;;;13.10;99.90;;;;;;4996077;28;20045;-81
2023/06/01 09:52:06;;;;;;;3.20;1.92;;;13.10;99.90;;;;;;4991630;28;20050;-79
2023/06/01 09:54:40;;;;;;;2.15;1.88;;;13.20;99.90;;;;;;4986066;28;20038;-79
2023/06/01 09:57:06;;;;;;;2.10;1.90;;;13.20;99.90;;;;;;4986001;28;20034;-79
2023/06/01 09:59:46;;;;;;;3.08;2.15;;;13.20;99.90;;;;;;4989796;28;20135;-79
2023/06/01 10:02:14;;;;;;;3.05;2.00;;;13.30;99.90;;;;;;4999654;28;20051;-78
2023/06/01 10:04:44;;;;;;;3.97;2.47;;;13.30;99.90;;;;;;4976070;28;20057;-78
2023/06/01 10:07:12;;;;;;;5.85;2.58;;;13.40;99.90;;;;;;5006692;28;20044;-79
2023/06/01 10:09:41;;;;;;;4.35;2.63;;;13.50;99.90;;;;;;4992870;28;20529;-79
2023/06/01 10:12:07;;;;;;;4.18;2.78;;;13.50;99.90;;;;;;4996173;28;20058;-79
2023/06/01 10:14:33;;;;;;;3.78;2.60;;;13.30;99.90;;;;;;4977920;28;20088;-78
2023/06/01 10:17:00;;;;;;;4.93;2.33;;;13.30;99.90;;;;;;4993736;28;20033;-79
2023/06/01 10:19:25;;;;;;;4.05;3.03;;;13.20;99.90;;;;;;4983390;28;20041;-78
2023/06/01 10:21:52;;;;;;;4.28;2.50;;;13.30;99.90;;;;;;4976534;28;20515;-79
2023/06/01 10:24:18;;;;;;;7.90;4.05;;;13.30;99.90;;;;;;4977054;28;20037;-79
2023/06/01 10:27:20;;;;;;;6.50;3.10;;;13.20;99.90;;;;;;4991329;28;20343;-79
2023/06/01 10:29:46;;;;;;;8.35;3.30;;;13.10;99.90;;;;;;4993341;28;20096;-78
2023/06/01 10:32:37;;;;;;;5.10;2.78;;;13.10;99.90;;;;;;4990584;28;20046;-78
2023/06/01 10:35:07;;;;;;;9.90;3.35;;;13.10;99.90;;;;;;4992820;28;20116;-79
2023/06/01 10:37:34;;;;;;;6.82;3.60;;;13.10;99.90;;;;;;4977690;28;20034;-78
2023/06/01 10:40:24;;;;;;;7.50;3.83;;;13.10;99.90;;;;;;4976358;28;20038;-79
2023/06/01 10:42:50;;;;;;;5.30;3.83;;;13.00;99.90;;;;;;4979243;28;20037;-79
2023/06/01 10:45:38;;;;;;;13.40;3.97;;;12.90;99.90;;;;;;5003711;28;20092;-79
2023/06/01 10:48:05;;;;;;;9.93;3.50;;;12.90;99.90;;;;;;4998308;28;20045;-78
2023/06/01 10:50:31;;;;;;;15.98;4.45;;;12.90;99.90;;;;;;5010276;28;20088;-79
2023/06/01 10:53:24;;;;;;;8.52;4.03;;;12.90;99.90;;;;;;4998226;28;20066;-79
2023/06/01 10:56:26;;;;;;;12.27;4.97;;;12.90;99.90;;;;;;4990526;28;20149;-79
2023/06/01 10:59:07;;;;;;;8.35;4.32;;;12.80;99.90;;;;;;4973255;28;20499;-79
2023/06/01 11:01:43;;;;;;;9.25;4.60;;;12.90;99.90;;;;;;4989961;28;20034;-80
2023/06/01 11:04:10;;;;;;;11.50;4.70;;;12.80;99.90;;;;;;4993110;28;20124;-80
2023/06/01 11:06:42;;;;;;;10.95;4.70;;;12.80;99.90;;;;;;4997898;28;20042;-80
2023/06/01 11:09:10;;;;;;;9.23;4.57;;;12.90;99.90;;;;;;4996376;28;20163;-80
2023/06/01 11:11:51;;;;;;;10.50;4.50;;;13.00;99.90;;;;;;4996063;28;20398;-80
2023/06/01 11:14:25;;;;;;;9.98;4.20;;;13.10;99.90;;;;;;5014365;28;20664;-80
2023/06/01 11:16:54;;;;;;;12.55;4.95;;;13.20;99.90;;;;;;4976876;28;20121;-80
2023/06/01 11:19:24;;;;;;;7.88;3.95;;;13.30;99.90;;;;;;4979485;28;20682;-80
2023/06/01 11:22:02;;;;;;;15.60;4.50;;;13.40;99.90;;;;;;5004534;28;20046;-80
2023/06/01 11:24:35;;;;;;;9.82;4.50;;;13.40;99.90;;;;;;5019374;28;20038;-80
2023/06/01 11:27:09;;;;;;;10.98;4.22;;;13.50;99.90;;;;;;4990727;28;20565;-80
2023/06/01 11:29:36;;;;;;;9.20;3.60;;;13.50;99.90;;;;;;4967722;28;20042;-80
2023/06/01 11:32:05;;;;;;;9.65;3.60;;;13.50;99.90;;;;;;5000116;28;20025;-79
2023/06/01 11:34:34;;;;;;;12.43;4.07;;;13.40;99.90;;;;;;5010456;28;20045;-80
2023/06/01 11:37:01;;;;;;;33.20;4.53;;;13.40;99.90;;;;;;4988891;28;20041;-79
2023/06/01 11:39:28;;;;;;;25.10;5.07;;;13.60;99.90;;;;;;5004929;28;20045;-79
2023/06/01 11:42:07;;;;;;;12.75;4.38;;;13.60;99.90;;;;;;4979526;28;20044;-80
2023/06/01 11:44:35;;;;;;;52.55;6.97;;;13.60;99.90;;;;;;5007223;28;20038;-80
2023/06/01 11:47:02;;;;;;;12.77;4.18;;;13.50;99.90;;;;;;4997962;28;20502;-80
2023/06/01 11:49:28;;;;;;;20.88;4.10;;;13.60;99.90;;;;;;4982133;28;20569;-80
2023/06/01 11:51:55;;;;;;;11.80;3.83;;;13.60;99.90;;;;;;4998394;28;20049;-80
2023/06/01 11:54:23;;;;;;;16.92;4.40;;;13.60;99.90;;;;;;4999078;28;20041;-80
2023/06/01 11:56:48;;;;;;;29.35;4.53;;;13.70;99.90;;;;;;5008121;28;20060;-80
2023/06/01 11:59:14;;;;;;;11.82;4.15;;;13.70;99.90;;;;;;4993836;28;20046;-79
2023/06/01 12:01:45;;;;;;;55.80;7.55;;;13.80;99.90;;;;;;4974109;28;20049;-80
2023/06/01 12:04:20;;;;;;;14.02;4.15;;;14.00;99.90;;;;;;4967396;28;20038;-79
2023/06/01 12:06:46;;;;;;;18.60;4.63;;;14.10;99.90;;;;;;4965891;28;20049;-80
2023/06/01 12:09:15;;;;;;;11.02;3.90;;;14.10;99.90;;;;;;4964965;28;20056;-80
2023/06/01 12:11:42;;;;;;;9.95;4.22;;;14.30;99.90;;;;;;4978527;28;20129;-80
2023/06/01 12:14:09;;;;;;;69.72;7.97;;;14.30;99.90;;;;;;4956174;28;21034;-80
2023/06/01 12:16:58;;;;;;;11.35;3.83;;;14.20;99.90;;;;;;5009814;28;20068;-80
2023/06/01 12:19:26;;;;;;;12.00;3.67;;;14.30;99.90;;;;;;5014492;28;20049;-79
2023/06/01 12:21:56;;;;;;;14.90;3.90;;;14.20;99.90;;;;;;4989107;28;20356;-80
2023/06/01 12:24:32;;;;;;;10.07;4.28;;;14.20;99.90;;;;;;5015032;28;20048;-81
2023/06/01 12:26:59;;;;;;;9.70;4.00;;;14.40;99.90;;;;;;5000090;28;20042;-80
2023/06/01 12:29:38;;;;;;;8.43;3.88;;;14.40;99.90;;;;;;4982991;28;20037;-82
2023/06/01 12:32:05;;;;;;;12.27;4.68;;;14.40;99.90;;;;;;4994720;28;20050;-82
2023/06/01 12:34:31;;;;;;;99.10;9.95;;;14.40;99.90;;;;;;4987881;28;20049;-81
2023/06/01 12:36:57;;;;;;;8.95;3.92;;;14.50;99.90;;;;;;4989995;28;20042;-79
2023/06/01 12:39:36;;;;;;;10.70;3.75;;;14.60;99.90;;;;;;4980367;28;20036;-80
2023/06/01 12:42:05;;;;;;;13.68;3.75;;;14.60;99.90;;;;;;5008863;28;20525;-78
2023/06/01 12:44:32;;;;;;;9.38;4.15;;;14.60;99.90;;;;;;4979142;28;20049;-80
2023/06/01 12:47:01;;;;;;;10.75;3.53;;;14.60;99.90;;;;;;4996211;28;20041;-81